sensor_id;sensor_type;location;lat;lon;timestamp;P1;durP1;ratioP1;P2;durP2;ratioP2
6358;SDS011;3212;51.460;11.868;2024-01-11T00:01:26;34.43;;;15.30;;
6358;SDS011;3212;51.460;11.868;2024-01-11T00:04:49;42.00;;;15.60;;
6358;SDS011;3212;51.460;11.868;2024-01-11T00:08:12;37.33;;;14.90;;
6358;SDS011;3212;51.460;11.868;2024-01-11T00:11:35;38.23;;;16.00;;
6358;SDS011;3212;51.460;11.868;2024-01-11T00:14:57;37.40;;;15.30;;
6358;SDS011;3212;51.460;11.868;2024-01-11T00:18:21;47.73;;;17.33;;
6358;SDS011;3212;51.460;11.868;2024-01-11T00:21:43;37.23;;;15.83;;
6358;SDS011;3212;51.460;11.868;2024-01-11T00:25:05;40.50;;;16.40;;
6358;SDS011;3212;51.460;11.868;2024-01-11T00:28:28;40.87;;;17.03;;
6358;SDS011;3212;51.460;11.868;2024-01-11T00:31:51;37.27;;;16.10;;
6358;SDS011;3212;51.460;11.868;2024-01-11T00:35:13;39.73;;;15.10;;
6358;SDS011;3212;51.460;11.868;2024-01-11T00:38:36;40.80;;;16.63;;
6358;SDS011;3212;51.460;11.868;2024-01-11T00:41:59;44.40;;;17.00;;
6358;SDS011;3212;51.460;11.868;2024-01-11T00:45:21;51.83;;;16.50;;
6358;SDS011;3212;51.460;11.868;2024-01-11T00:48:44;39.20;;;15.70;;
6358;SDS011;3212;51.460;11.868;2024-01-11T00:52:07;38.53;;;15.23;;
6358;SDS011;3212;51.460;11.868;2024-01-11T00:55:29;36.57;;;15.23;;
6358;SDS011;3212;51.460;11.868;2024-01-11T00:58:52;35.50;;;14.97;;
6358;SDS011;3212;51.460;11.868;2024-01-11T01:02:15;39.40;;;14.90;;
6358;SDS011;3212;51.460;11.868;2024-01-11T01:05:38;35.77;;;16.07;;
6358;SDS011;3212;51.460;11.868;2024-01-11T01:09:00;34.80;;;15.10;;
6358;SDS011;3212;51.460;11.868;2024-01-11T01:12:23;36.70;;;16.40;;
6358;SDS011;3212;51.460;11.868;2024-01-11T01:15:48;37.47;;;15.73;;
6358;SDS011;3212;51.460;11.868;2024-01-11T01:19:12;33.93;;;14.77;;
6358;SDS011;3212;51.460;11.868;2024-01-11T01:22:34;36.00;;;15.27;;
6358;SDS011;3212;51.460;11.868;2024-01-11T01:25:56;41.40;;;15.17;;
6358;SDS011;3212;51.460;11.868;2024-01-11T01:29:19;37.97;;;15.83;;
6358;SDS011;3212;51.460;11.868;2024-01-11T01:32:46;41.50;;;15.67;;
6358;SDS011;3212;51.460;11.868;2024-01-11T01:36:09;39.77;;;15.03;;
6358;SDS011;3212;51.460;11.868;2024-01-11T01:39:32;32.77;;;14.53;;
6358;SDS011;3212;51.460;11.868;2024-01-11T01:42:57;38.60;;;15.20;;
6358;SDS011;3212;51.460;11.868;2024-01-11T01:46:22;43.83;;;15.40;;
6358;SDS011;3212;51.460;11.868;2024-01-11T01:49:43;35.37;;;15.17;;
6358;SDS011;3212;51.460;11.868;2024-01-11T01:53:05;41.50;;;15.53;;
6358;SDS011;3212;51.460;11.868;2024-01-11T01:56:27;37.07;;;15.03;;
6358;SDS011;3212;51.460;11.868;2024-01-11T01:59:51;35.47;;;15.27;;
6358;SDS011;3212;51.460;11.868;2024-01-11T02:03:14;35.87;;;15.73;;
6358;SDS011;3212;51.460;11.868;2024-01-11T02:06:36;35.83;;;14.57;;
6358;SDS011;3212;51.460;11.868;2024-01-11T02:10:00;37.80;;;15.37;;
6358;SDS011;3212;51.460;11.868;2024-01-11T02:13:23;36.63;;;15.83;;
6358;SDS011;3212;51.460;11.868;2024-01-11T02:16:45;35.70;;;14.70;;
6358;SDS011;3212;51.460;11.868;2024-01-11T02:20:08;36.07;;;14.97;;
6358;SDS011;3212;51.460;11.868;2024-01-11T02:23:31;34.03;;;15.13;;
6358;SDS011;3212;51.460;11.868;2024-01-11T02:26:57;37.40;;;14.90;;
6358;SDS011;3212;51.460;11.868;2024-01-11T02:30:19;37.20;;;14.73;;
6358;SDS011;3212;51.460;11.868;2024-01-11T02:33:41;35.37;;;13.90;;
6358;SDS011;3212;51.460;11.868;2024-01-11T02:37:04;38.70;;;14.75;;
6358;SDS011;3212;51.460;11.868;2024-01-11T02:40:27;35.47;;;14.13;;
6358;SDS011;3212;51.460;11.868;2024-01-11T02:43:50;35.80;;;13.90;;
6358;SDS011;3212;51.460;11.868;2024-01-11T02:47:13;33.00;;;13.50;;
6358;SDS011;3212;51.460;11.868;2024-01-11T02:50:35;38.20;;;16.60;;
6358;SDS011;3212;51.460;11.868;2024-01-11T02:53:58;38.87;;;14.90;;
6358;SDS011;3212;51.460;11.868;2024-01-11T02:57:22;32.83;;;13.70;;
6358;SDS011;3212;51.460;11.868;2024-01-11T03:00:44;40.50;;;14.30;;
6358;SDS011;3212;51.460;11.868;2024-01-11T03:04:07;35.57;;;15.07;;
6358;SDS011;3212;51.460;11.868;2024-01-11T03:07:29;45.60;;;15.63;;
6358;SDS011;3212;51.460;11.868;2024-01-11T03:10:52;34.67;;;15.33;;
6358;SDS011;3212;51.460;11.868;2024-01-11T03:14:15;33.53;;;14.63;;
6358;SDS011;3212;51.460;11.868;2024-01-11T03:17:37;38.03;;;15.03;;
6358;SDS011;3212;51.460;11.868;2024-01-11T03:21:00;34.90;;;14.23;;
6358;SDS011;3212;51.460;11.868;2024-01-11T03:24:23;45.87;;;17.50;;
6358;SDS011;3212;51.460;11.868;2024-01-11T03:27:45;44.33;;;15.33;;
6358;SDS011;3212;51.460;11.868;2024-01-11T03:31:08;36.13;;;15.10;;
6358;SDS011;3212;51.460;11.868;2024-01-11T03:34:30;33.50;;;14.93;;
6358;SDS011;3212;51.460;11.868;2024-01-11T03:37:52;34.80;;;14.60;;
6358;SDS011;3212;51.460;11.868;2024-01-11T03:41:15;45.60;;;17.90;;
6358;SDS011;3212;51.460;11.868;2024-01-11T03:44:37;38.97;;;17.07;;
6358;SDS011;3212;51.460;11.868;2024-01-11T03:47:59;40.00;;;16.00;;
6358;SDS011;3212;51.460;11.868;2024-01-11T03:51:22;37.90;;;16.13;;
6358;SDS011;3212;51.460;11.868;2024-01-11T03:54:45;40.33;;;14.87;;
6358;SDS011;3212;51.460;11.868;2024-01-11T03:58:08;33.87;;;14.37;;
6358;SDS011;3212;51.460;11.868;2024-01-11T04:01:30;41.00;;;16.17;;
6358;SDS011;3212;51.460;11.868;2024-01-11T04:04:53;42.57;;;16.23;;
6358;SDS011;3212;51.460;11.868;2024-01-11T04:08:16;32.47;;;14.57;;
6358;SDS011;3212;51.460;11.868;2024-01-11T04:11:38;36.70;;;15.50;;
6358;SDS011;3212;51.460;11.868;2024-01-11T04:15:01;39.43;;;15.87;;
6358;SDS011;3212;51.460;11.868;2024-01-11T04:18:24;42.40;;;16.10;;
6358;SDS011;3212;51.460;11.868;2024-01-11T04:21:47;35.73;;;14.47;;
6358;SDS011;3212;51.460;11.868;2024-01-11T04:25:09;42.47;;;14.90;;
6358;SDS011;3212;51.460;11.868;2024-01-11T04:28:32;39.70;;;16.10;;
6358;SDS011;3212;51.460;11.868;2024-01-11T04:31:56;37.90;;;15.80;;
6358;SDS011;3212;51.460;11.868;2024-01-11T04:35:19;37.30;;;15.17;;
6358;SDS011;3212;51.460;11.868;2024-01-11T04:38:41;42.90;;;16.03;;
6358;SDS011;3212;51.460;11.868;2024-01-11T04:42:04;35.30;;;15.40;;
6358;SDS011;3212;51.460;11.868;2024-01-11T04:45:27;41.80;;;15.67;;
6358;SDS011;3212;51.460;11.868;2024-01-11T04:48:50;36.37;;;15.53;;
6358;SDS011;3212;51.460;11.868;2024-01-11T04:52:12;35.77;;;15.97;;
6358;SDS011;3212;51.460;11.868;2024-01-11T04:55:35;36.17;;;14.47;;
6358;SDS011;3212;51.460;11.868;2024-01-11T04:58:58;37.73;;;14.73;;
6358;SDS011;3212;51.460;11.868;2024-01-11T05:02:23;40.70;;;15.73;;
6358;SDS011;3212;51.460;11.868;2024-01-11T05:05:45;43.00;;;16.50;;
6358;SDS011;3212;51.460;11.868;2024-01-11T05:09:07;40.80;;;16.47;;
6358;SDS011;3212;51.460;11.868;2024-01-11T05:12:31;44.83;;;16.07;;
6358;SDS011;3212;51.460;11.868;2024-01-11T05:15:54;40.27;;;15.93;;
6358;SDS011;3212;51.460;11.868;2024-01-11T05:19:17;30.30;;;13.87;;
6358;SDS011;3212;51.460;11.868;2024-01-11T05:22:39;40.70;;;15.90;;
6358;SDS011;3212;51.460;11.868;2024-01-11T05:26:02;40.60;;;15.77;;
6358;SDS011;3212;51.460;11.868;2024-01-11T05:29:25;41.03;;;17.23;;
6358;SDS011;3212;51.460;11.868;2024-01-11T05:32:47;39.43;;;16.20;;
6358;SDS011;3212;51.460;11.868;2024-01-11T05:36:10;39.97;;;17.10;;
6358;SDS011;3212;51.460;11.868;2024-01-11T05:39:32;41.50;;;15.17;;
6358;SDS011;3212;51.460;11.868;2024-01-11T05:42:55;48.43;;;16.27;;
6358;SDS011;3212;51.460;11.868;2024-01-11T05:46:17;37.73;;;15.23;;
6358;SDS011;3212;51.460;11.868;2024-01-11T05:49:41;37.90;;;14.87;;
6358;SDS011;3212;51.460;11.868;2024-01-11T05:53:03;43.80;;;17.80;;
6358;SDS011;3212;51.460;11.868;2024-01-11T05:56:25;38.60;;;15.87;;
6358;SDS011;3212;51.460;11.868;2024-01-11T05:59:49;36.93;;;15.53;;
6358;SDS011;3212;51.460;11.868;2024-01-11T06:03:12;38.97;;;14.37;;
6358;SDS011;3212;51.460;11.868;2024-01-11T06:06:34;36.10;;;14.43;;
6358;SDS011;3212;51.460;11.868;2024-01-11T06:09:58;43.10;;;16.17;;
6358;SDS011;3212;51.460;11.868;2024-01-11T06:13:20;44.60;;;15.07;;
6358;SDS011;3212;51.460;11.868;2024-01-11T06:16:45;46.80;;;15.97;;
6358;SDS011;3212;51.460;11.868;2024-01-11T06:20:08;46.50;;;16.70;;
6358;SDS011;3212;51.460;11.868;2024-01-11T06:23:31;44.50;;;16.87;;
6358;SDS011;3212;51.460;11.868;2024-01-11T06:26:54;37.07;;;15.47;;
6358;SDS011;3212;51.460;11.868;2024-01-11T06:30:17;41.55;;;16.48;;
6358;SDS011;3212;51.460;11.868;2024-01-11T06:33:39;40.87;;;16.30;;
6358;SDS011;3212;51.460;11.868;2024-01-11T06:37:02;43.17;;;17.50;;
6358;SDS011;3212;51.460;11.868;2024-01-11T06:40:24;44.67;;;19.07;;
6358;SDS011;3212;51.460;11.868;2024-01-11T06:43:47;42.97;;;17.77;;
6358;SDS011;3212;51.460;11.868;2024-01-11T06:47:09;42.40;;;16.00;;
6358;SDS011;3212;51.460;11.868;2024-01-11T06:50:32;41.93;;;16.50;;
6358;SDS011;3212;51.460;11.868;2024-01-11T06:53:56;41.67;;;17.07;;
6358;SDS011;3212;51.460;11.868;2024-01-11T06:57:19;42.27;;;16.37;;
6358;SDS011;3212;51.460;11.868;2024-01-11T07:00:42;38.80;;;16.10;;
6358;SDS011;3212;51.460;11.868;2024-01-11T07:04:05;42.00;;;16.37;;
6358;SDS011;3212;51.460;11.868;2024-01-11T07:07:28;49.67;;;17.93;;
6358;SDS011;3212;51.460;11.868;2024-01-11T07:10:50;47.53;;;16.43;;
6358;SDS011;3212;51.460;11.868;2024-01-11T07:14:12;41.60;;;16.80;;
6358;SDS011;3212;51.460;11.868;2024-01-11T07:17:35;38.47;;;15.90;;
6358;SDS011;3212;51.460;11.868;2024-01-11T07:20:58;36.20;;;16.03;;
6358;SDS011;3212;51.460;11.868;2024-01-11T07:24:20;39.10;;;15.00;;
6358;SDS011;3212;51.460;11.868;2024-01-11T07:27:44;35.73;;;15.90;;
6358;SDS011;3212;51.460;11.868;2024-01-11T07:31:06;34.67;;;14.13;;
6358;SDS011;3212;51.460;11.868;2024-01-11T07:34:29;37.83;;;16.23;;
6358;SDS011;3212;51.460;11.868;2024-01-11T07:37:52;38.97;;;15.63;;
6358;SDS011;3212;51.460;11.868;2024-01-11T07:41:15;44.07;;;17.00;;
6358;SDS011;3212;51.460;11.868;2024-01-11T07:44:38;36.43;;;14.57;;
6358;SDS011;3212;51.460;11.868;2024-01-11T07:48:01;42.20;;;17.00;;
6358;SDS011;3212;51.460;11.868;2024-01-11T07:51:24;43.87;;;17.47;;
6358;SDS011;3212;51.460;11.868;2024-01-11T07:54:47;37.40;;;16.20;;
6358;SDS011;3212;51.460;11.868;2024-01-11T07:58:09;43.63;;;17.83;;
6358;SDS011;3212;51.460;11.868;2024-01-11T08:01:31;53.57;;;19.30;;
6358;SDS011;3212;51.460;11.868;2024-01-11T08:04:55;36.73;;;15.50;;
6358;SDS011;3212;51.460;11.868;2024-01-11T08:08:17;44.93;;;17.73;;
6358;SDS011;3212;51.460;11.868;2024-01-11T08:11:39;37.30;;;16.10;;
6358;SDS011;3212;51.460;11.868;2024-01-11T08:15:03;41.67;;;17.77;;
6358;SDS011;3212;51.460;11.868;2024-01-11T08:18:26;44.63;;;17.73;;
6358;SDS011;3212;51.460;11.868;2024-01-11T08:21:49;43.83;;;18.27;;
6358;SDS011;3212;51.460;11.868;2024-01-11T08:25:12;51.67;;;19.73;;
6358;SDS011;3212;51.460;11.868;2024-01-11T08:28:35;47.53;;;18.40;;
6358;SDS011;3212;51.460;11.868;2024-01-11T08:31:58;43.63;;;18.13;;
6358;SDS011;3212;51.460;11.868;2024-01-11T08:35:21;49.20;;;18.33;;
6358;SDS011;3212;51.460;11.868;2024-01-11T08:38:44;45.47;;;18.70;;
6358;SDS011;3212;51.460;11.868;2024-01-11T08:42:06;50.43;;;20.60;;
6358;SDS011;3212;51.460;11.868;2024-01-11T08:45:29;43.50;;;19.70;;
6358;SDS011;3212;51.460;11.868;2024-01-11T08:48:53;45.23;;;19.97;;
6358;SDS011;3212;51.460;11.868;2024-01-11T08:52:14;46.37;;;18.70;;
6358;SDS011;3212;51.460;11.868;2024-01-11T08:55:37;39.83;;;17.83;;
6358;SDS011;3212;51.460;11.868;2024-01-11T08:59:00;50.90;;;20.13;;
6358;SDS011;3212;51.460;11.868;2024-01-11T09:02:22;48.60;;;19.70;;
6358;SDS011;3212;51.460;11.868;2024-01-11T09:05:45;39.07;;;18.10;;
6358;SDS011;3212;51.460;11.868;2024-01-11T09:09:08;48.53;;;18.23;;
6358;SDS011;3212;51.460;11.868;2024-01-11T09:12:31;46.90;;;18.63;;
6358;SDS011;3212;51.460;11.868;2024-01-11T09:15:54;46.07;;;18.73;;
6358;SDS011;3212;51.460;11.868;2024-01-11T09:19:21;45.00;;;19.70;;
6358;SDS011;3212;51.460;11.868;2024-01-11T09:22:43;46.73;;;20.00;;
6358;SDS011;3212;51.460;11.868;2024-01-11T09:26:06;50.45;;;21.12;;
6358;SDS011;3212;51.460;11.868;2024-01-11T09:29:29;50.97;;;20.00;;
6358;SDS011;3212;51.460;11.868;2024-01-11T09:32:52;53.10;;;21.90;;
6358;SDS011;3212;51.460;11.868;2024-01-11T09:36:15;52.17;;;20.83;;
6358;SDS011;3212;51.460;11.868;2024-01-11T09:39:37;50.80;;;21.00;;
6358;SDS011;3212;51.460;11.868;2024-01-11T09:43:01;53.13;;;21.60;;
6358;SDS011;3212;51.460;11.868;2024-01-11T09:46:23;46.83;;;20.13;;
6358;SDS011;3212;51.460;11.868;2024-01-11T09:49:47;44.57;;;20.00;;
6358;SDS011;3212;51.460;11.868;2024-01-11T09:53:09;49.67;;;21.10;;
6358;SDS011;3212;51.460;11.868;2024-01-11T09:56:31;43.83;;;20.17;;
6358;SDS011;3212;51.460;11.868;2024-01-11T09:59:54;57.30;;;23.57;;
6358;SDS011;3212;51.460;11.868;2024-01-11T10:03:17;55.47;;;21.87;;
6358;SDS011;3212;51.460;11.868;2024-01-11T10:06:39;58.00;;;24.13;;
6358;SDS011;3212;51.460;11.868;2024-01-11T10:10:03;54.93;;;23.40;;
6358;SDS011;3212;51.460;11.868;2024-01-11T10:13:27;50.13;;;21.43;;
6358;SDS011;3212;51.460;11.868;2024-01-11T10:16:49;59.13;;;22.50;;
6358;SDS011;3212;51.460;11.868;2024-01-11T10:20:12;66.17;;;23.53;;
6358;SDS011;3212;51.460;11.868;2024-01-11T10:23:35;53.47;;;22.20;;
6358;SDS011;3212;51.460;11.868;2024-01-11T10:26:58;53.80;;;21.87;;
6358;SDS011;3212;51.460;11.868;2024-01-11T10:30:21;53.13;;;23.20;;
6358;SDS011;3212;51.460;11.868;2024-01-11T10:33:44;53.57;;;21.37;;
6358;SDS011;3212;51.460;11.868;2024-01-11T10:37:06;45.50;;;21.73;;
6358;SDS011;3212;51.460;11.868;2024-01-11T10:40:30;54.03;;;22.13;;
6358;SDS011;3212;51.460;11.868;2024-01-11T10:43:57;49.20;;;21.63;;
6358;SDS011;3212;51.460;11.868;2024-01-11T10:47:20;46.60;;;20.37;;
6358;SDS011;3212;51.460;11.868;2024-01-11T10:50:44;52.63;;;22.83;;
6358;SDS011;3212;51.460;11.868;2024-01-11T10:54:05;53.00;;;23.70;;
6358;SDS011;3212;51.460;11.868;2024-01-11T10:57:29;51.23;;;22.67;;
6358;SDS011;3212;51.460;11.868;2024-01-11T11:00:50;63.47;;;22.33;;
6358;SDS011;3212;51.460;11.868;2024-01-11T11:04:13;53.53;;;24.53;;
6358;SDS011;3212;51.460;11.868;2024-01-11T11:07:35;40.10;;;19.30;;
6358;SDS011;3212;51.460;11.868;2024-01-11T11:11:00;47.60;;;20.80;;
6358;SDS011;3212;51.460;11.868;2024-01-11T11:14:22;39.20;;;19.90;;
6358;SDS011;3212;51.460;11.868;2024-01-11T11:17:44;41.53;;;18.20;;
6358;SDS011;3212;51.460;11.868;2024-01-11T11:21:09;45.40;;;20.53;;
6358;SDS011;3212;51.460;11.868;2024-01-11T11:24:34;47.20;;;19.47;;
6358;SDS011;3212;51.460;11.868;2024-01-11T11:27:57;38.17;;;17.97;;
6358;SDS011;3212;51.460;11.868;2024-01-11T11:35:03;45.63;;;19.20;;
6358;SDS011;3212;51.460;11.868;2024-01-11T11:38:27;48.07;;;20.30;;
6358;SDS011;3212;51.460;11.868;2024-01-11T11:41:49;55.67;;;23.07;;
6358;SDS011;3212;51.460;11.868;2024-01-11T11:45:12;55.33;;;22.37;;
6358;SDS011;3212;51.460;11.868;2024-01-11T11:48:47;50.43;;;22.17;;
6358;SDS011;3212;51.460;11.868;2024-01-11T11:52:04;51.77;;;21.50;;
6358;SDS011;3212;51.460;11.868;2024-01-11T11:55:27;48.97;;;21.50;;
6358;SDS011;3212;51.460;11.868;2024-01-11T11:58:50;50.43;;;23.70;;
6358;SDS011;3212;51.460;11.868;2024-01-11T12:02:14;48.60;;;21.17;;
6358;SDS011;3212;51.460;11.868;2024-01-11T12:05:37;45.57;;;20.03;;
6358;SDS011;3212;51.460;11.868;2024-01-11T12:09:02;55.50;;;25.57;;
6358;SDS011;3212;51.460;11.868;2024-01-11T12:12:25;59.90;;;27.63;;
6358;SDS011;3212;51.460;11.868;2024-01-11T12:15:47;52.50;;;24.10;;
6358;SDS011;3212;51.460;11.868;2024-01-11T12:19:11;45.10;;;20.33;;
6358;SDS011;3212;51.460;11.868;2024-01-11T12:22:34;47.13;;;20.63;;
6358;SDS011;3212;51.460;11.868;2024-01-11T12:25:57;80.10;;;33.20;;
6358;SDS011;3212;51.460;11.868;2024-01-11T12:29:19;58.67;;;24.50;;
6358;SDS011;3212;51.460;11.868;2024-01-11T12:32:41;61.80;;;25.10;;
6358;SDS011;3212;51.460;11.868;2024-01-11T12:36:04;57.13;;;25.43;;
6358;SDS011;3212;51.460;11.868;2024-01-11T12:39:26;63.83;;;28.03;;
6358;SDS011;3212;51.460;11.868;2024-01-11T12:42:49;61.23;;;26.63;;
6358;SDS011;3212;51.460;11.868;2024-01-11T12:46:11;52.28;;;23.12;;
6358;SDS011;3212;51.460;11.868;2024-01-11T12:49:34;49.20;;;20.60;;
6358;SDS011;3212;51.460;11.868;2024-01-11T12:56:30;47.70;;;21.93;;
6358;SDS011;3212;51.460;11.868;2024-01-11T12:59:53;46.63;;;21.83;;
6358;SDS011;3212;51.460;11.868;2024-01-11T13:03:16;49.03;;;20.77;;
6358;SDS011;3212;51.460;11.868;2024-01-11T13:06:39;46.53;;;21.30;;
6358;SDS011;3212;51.460;11.868;2024-01-11T13:10:01;49.90;;;21.30;;
6358;SDS011;3212;51.460;11.868;2024-01-11T13:13:24;57.73;;;22.93;;
6358;SDS011;3212;51.460;11.868;2024-01-11T13:16:47;55.70;;;23.60;;
6358;SDS011;3212;51.460;11.868;2024-01-11T13:20:10;51.17;;;20.00;;
6358;SDS011;3212;51.460;11.868;2024-01-11T13:23:33;42.97;;;19.40;;
6358;SDS011;3212;51.460;11.868;2024-01-11T13:26:56;49.73;;;20.00;;
6358;SDS011;3212;51.460;11.868;2024-01-11T13:30:18;46.17;;;19.73;;
6358;SDS011;3212;51.460;11.868;2024-01-11T13:33:41;49.10;;;21.05;;
6358;SDS011;3212;51.460;11.868;2024-01-11T13:37:03;38.23;;;16.00;;
6358;SDS011;3212;51.460;11.868;2024-01-11T13:40:26;42.70;;;17.73;;
6358;SDS011;3212;51.460;11.868;2024-01-11T13:43:49;37.93;;;15.80;;
6358;SDS011;3212;51.460;11.868;2024-01-11T13:47:13;44.30;;;17.67;;
6358;SDS011;3212;51.460;11.868;2024-01-11T13:50:35;43.50;;;18.20;;
6358;SDS011;3212;51.460;11.868;2024-01-11T13:53:58;41.37;;;18.17;;
6358;SDS011;3212;51.460;11.868;2024-01-11T13:57:21;44.33;;;18.53;;
6358;SDS011;3212;51.460;11.868;2024-01-11T14:00:44;39.90;;;16.33;;
6358;SDS011;3212;51.460;11.868;2024-01-11T14:04:06;37.13;;;14.90;;
6358;SDS011;3212;51.460;11.868;2024-01-11T14:07:29;36.07;;;15.40;;
6358;SDS011;3212;51.460;11.868;2024-01-11T14:10:52;35.07;;;15.50;;
6358;SDS011;3212;51.460;11.868;2024-01-11T14:14:14;33.50;;;15.87;;
6358;SDS011;3212;51.460;11.868;2024-01-11T14:17:37;37.63;;;14.87;;
6358;SDS011;3212;51.460;11.868;2024-01-11T14:20:59;29.23;;;12.97;;
6358;SDS011;3212;51.460;11.868;2024-01-11T14:24:22;25.17;;;9.83;;
6358;SDS011;3212;51.460;11.868;2024-01-11T14:27:46;20.60;;;9.50;;
6358;SDS011;3212;51.460;11.868;2024-01-11T14:31:08;15.17;;;7.50;;
6358;SDS011;3212;51.460;11.868;2024-01-11T14:34:31;17.20;;;7.30;;
6358;SDS011;3212;51.460;11.868;2024-01-11T14:37:54;13.80;;;6.63;;
6358;SDS011;3212;51.460;11.868;2024-01-11T14:41:16;15.27;;;6.30;;
6358;SDS011;3212;51.460;11.868;2024-01-11T14:44:39;12.53;;;6.13;;
6358;SDS011;3212;51.460;11.868;2024-01-11T14:48:02;19.70;;;7.30;;
6358;SDS011;3212;51.460;11.868;2024-01-11T14:51:24;17.10;;;6.63;;
6358;SDS011;3212;51.460;11.868;2024-01-11T14:54:46;14.10;;;6.90;;
6358;SDS011;3212;51.460;11.868;2024-01-11T14:58:10;21.83;;;7.77;;
6358;SDS011;3212;51.460;11.868;2024-01-11T15:01:32;14.90;;;6.07;;
6358;SDS011;3212;51.460;11.868;2024-01-11T15:04:55;12.23;;;5.67;;
6358;SDS011;3212;51.460;11.868;2024-01-11T15:08:19;17.17;;;7.30;;
6358;SDS011;3212;51.460;11.868;2024-01-11T15:11:41;13.97;;;5.90;;
6358;SDS011;3212;51.460;11.868;2024-01-11T15:15:04;15.53;;;6.70;;
6358;SDS011;3212;51.460;11.868;2024-01-11T15:18:27;15.00;;;6.23;;
6358;SDS011;3212;51.460;11.868;2024-01-11T15:21:49;14.80;;;6.10;;
6358;SDS011;3212;51.460;11.868;2024-01-11T15:25:12;14.77;;;6.20;;
6358;SDS011;3212;51.460;11.868;2024-01-11T15:28:36;15.40;;;6.60;;
6358;SDS011;3212;51.460;11.868;2024-01-11T15:31:58;18.20;;;8.00;;
6358;SDS011;3212;51.460;11.868;2024-01-11T15:35:20;17.57;;;7.20;;
6358;SDS011;3212;51.460;11.868;2024-01-11T15:38:44;18.10;;;7.80;;
6358;SDS011;3212;51.460;11.868;2024-01-11T15:42:07;15.70;;;6.30;;
6358;SDS011;3212;51.460;11.868;2024-01-11T15:45:30;13.60;;;5.57;;
6358;SDS011;3212;51.460;11.868;2024-01-11T15:48:52;16.42;;;6.72;;
6358;SDS011;3212;51.460;11.868;2024-01-11T15:52:15;15.40;;;6.70;;
6358;SDS011;3212;51.460;11.868;2024-01-11T15:55:38;18.50;;;7.37;;
6358;SDS011;3212;51.460;11.868;2024-01-11T15:59:00;11.77;;;5.90;;
6358;SDS011;3212;51.460;11.868;2024-01-11T16:02:23;15.40;;;6.37;;
6358;SDS011;3212;51.460;11.868;2024-01-11T16:05:46;19.63;;;7.03;;
6358;SDS011;3212;51.460;11.868;2024-01-11T16:09:08;11.70;;;6.10;;
6358;SDS011;3212;51.460;11.868;2024-01-11T16:12:31;13.37;;;5.60;;
6358;SDS011;3212;51.460;11.868;2024-01-11T16:15:54;15.23;;;7.27;;
6358;SDS011;3212;51.460;11.868;2024-01-11T16:19:17;16.33;;;8.07;;
6358;SDS011;3212;51.460;11.868;2024-01-11T16:22:39;18.27;;;8.83;;
6358;SDS011;3212;51.460;11.868;2024-01-11T16:26:02;22.37;;;11.83;;
6358;SDS011;3212;51.460;11.868;2024-01-11T16:29:25;23.00;;;9.73;;
6358;SDS011;3212;51.460;11.868;2024-01-11T16:32:48;14.60;;;6.60;;
6358;SDS011;3212;51.460;11.868;2024-01-11T16:36:10;12.90;;;6.70;;
6358;SDS011;3212;51.460;11.868;2024-01-11T16:39:33;21.60;;;9.13;;
6358;SDS011;3212;51.460;11.868;2024-01-11T16:42:55;12.57;;;6.73;;
6358;SDS011;3212;51.460;11.868;2024-01-11T16:46:18;15.57;;;6.40;;
6358;SDS011;3212;51.460;11.868;2024-01-11T16:49:41;13.80;;;7.00;;
6358;SDS011;3212;51.460;11.868;2024-01-11T16:53:03;13.43;;;6.37;;
6358;SDS011;3212;51.460;11.868;2024-01-11T16:56:26;21.43;;;9.27;;
6358;SDS011;3212;51.460;11.868;2024-01-11T16:59:49;20.50;;;8.53;;
6358;SDS011;3212;51.460;11.868;2024-01-11T17:03:12;17.30;;;6.87;;
6358;SDS011;3212;51.460;11.868;2024-01-11T17:06:34;15.83;;;6.83;;
6358;SDS011;3212;51.460;11.868;2024-01-11T17:09:57;16.90;;;7.37;;
6358;SDS011;3212;51.460;11.868;2024-01-11T17:13:20;13.63;;;6.70;;
6358;SDS011;3212;51.460;11.868;2024-01-11T17:16:43;15.52;;;6.90;;
6358;SDS011;3212;51.460;11.868;2024-01-11T17:20:06;18.83;;;7.33;;
6358;SDS011;3212;51.460;11.868;2024-01-11T17:23:29;17.60;;;7.33;;
6358;SDS011;3212;51.460;11.868;2024-01-11T17:26:52;15.13;;;6.13;;
6358;SDS011;3212;51.460;11.868;2024-01-11T17:30:14;12.93;;;6.70;;
6358;SDS011;3212;51.460;11.868;2024-01-11T17:33:36;13.63;;;6.23;;
6358;SDS011;3212;51.460;11.868;2024-01-11T17:36:59;13.13;;;6.07;;
6358;SDS011;3212;51.460;11.868;2024-01-11T17:40:22;13.60;;;5.90;;
6358;SDS011;3212;51.460;11.868;2024-01-11T17:43:44;10.93;;;5.40;;
6358;SDS011;3212;51.460;11.868;2024-01-11T17:47:07;14.53;;;5.77;;
6358;SDS011;3212;51.460;11.868;2024-01-11T17:50:30;13.40;;;5.83;;
6358;SDS011;3212;51.460;11.868;2024-01-11T17:53:53;13.27;;;6.60;;
6358;SDS011;3212;51.460;11.868;2024-01-11T17:57:16;10.77;;;6.20;;
6358;SDS011;3212;51.460;11.868;2024-01-11T18:00:40;12.37;;;5.40;;
6358;SDS011;3212;51.460;11.868;2024-01-11T18:04:04;11.03;;;5.53;;
6358;SDS011;3212;51.460;11.868;2024-01-11T18:07:27;10.97;;;5.33;;
6358;SDS011;3212;51.460;11.868;2024-01-11T18:10:49;14.23;;;5.43;;
6358;SDS011;3212;51.460;11.868;2024-01-11T18:14:12;13.80;;;6.70;;
6358;SDS011;3212;51.460;11.868;2024-01-11T18:17:34;13.53;;;6.33;;
6358;SDS011;3212;51.460;11.868;2024-01-11T18:20:57;13.10;;;6.23;;
6358;SDS011;3212;51.460;11.868;2024-01-11T18:24:19;16.20;;;7.20;;
6358;SDS011;3212;51.460;11.868;2024-01-11T18:27:42;14.90;;;7.03;;
6358;SDS011;3212;51.460;11.868;2024-01-11T18:31:04;11.57;;;5.83;;
6358;SDS011;3212;51.460;11.868;2024-01-11T18:34:26;10.67;;;6.40;;
6358;SDS011;3212;51.460;11.868;2024-01-11T18:37:49;11.37;;;5.80;;
6358;SDS011;3212;51.460;11.868;2024-01-11T18:41:11;11.27;;;5.90;;
6358;SDS011;3212;51.460;11.868;2024-01-11T18:44:35;10.50;;;5.63;;
6358;SDS011;3212;51.460;11.868;2024-01-11T18:47:58;12.53;;;5.57;;
6358;SDS011;3212;51.460;11.868;2024-01-11T18:51:20;9.90;;;5.23;;
6358;SDS011;3212;51.460;11.868;2024-01-11T18:54:42;11.60;;;6.50;;
6358;SDS011;3212;51.460;11.868;2024-01-11T18:58:05;11.80;;;5.90;;
6358;SDS011;3212;51.460;11.868;2024-01-11T19:01:30;10.27;;;5.68;;
6358;SDS011;3212;51.460;11.868;2024-01-11T19:04:52;11.20;;;5.90;;
6358;SDS011;3212;51.460;11.868;2024-01-11T19:08:16;10.53;;;5.63;;
6358;SDS011;3212;51.460;11.868;2024-01-11T19:11:39;10.88;;;5.45;;
6358;SDS011;3212;51.460;11.868;2024-01-11T19:15:03;12.57;;;6.37;;
6358;SDS011;3212;51.460;11.868;2024-01-11T19:18:24;12.47;;;6.20;;
6358;SDS011;3212;51.460;11.868;2024-01-11T19:21:48;13.55;;;5.65;;
6358;SDS011;3212;51.460;11.868;2024-01-11T19:25:11;14.20;;;6.30;;
6358;SDS011;3212;51.460;11.868;2024-01-11T19:28:33;12.30;;;6.63;;
6358;SDS011;3212;51.460;11.868;2024-01-11T19:31:56;14.23;;;6.50;;
6358;SDS011;3212;51.460;11.868;2024-01-11T19:35:19;11.53;;;5.40;;
6358;SDS011;3212;51.460;11.868;2024-01-11T19:38:42;14.47;;;7.10;;
6358;SDS011;3212;51.460;11.868;2024-01-11T19:42:05;14.90;;;6.60;;
6358;SDS011;3212;51.460;11.868;2024-01-11T19:45:27;14.43;;;7.30;;
6358;SDS011;3212;51.460;11.868;2024-01-11T19:48:49;15.80;;;7.60;;
6358;SDS011;3212;51.460;11.868;2024-01-11T19:52:13;17.20;;;9.00;;
6358;SDS011;3212;51.460;11.868;2024-01-11T19:55:35;13.23;;;6.20;;
6358;SDS011;3212;51.460;11.868;2024-01-11T19:58:58;12.50;;;6.50;;
6358;SDS011;3212;51.460;11.868;2024-01-11T20:02:20;13.67;;;6.77;;
6358;SDS011;3212;51.460;11.868;2024-01-11T20:05:42;11.70;;;6.80;;
6358;SDS011;3212;51.460;11.868;2024-01-11T20:09:05;13.57;;;7.30;;
6358;SDS011;3212;51.460;11.868;2024-01-11T20:12:27;13.13;;;6.20;;
6358;SDS011;3212;51.460;11.868;2024-01-11T20:15:50;13.47;;;6.70;;